Time;durP1;ratioP1;P1;durP2;ratioP2;P2;SDS_P1;SDS_P2;PMS_P1;PMS_P2;Temp;Humidity;BMP_temperature;BMP_pressure;BME280_temperature;BME280_humidity;BME280_pressure;Samples;Min_cycle;Max_cycle;Signal;HPM_P1;HPM_P2
2020/12/16 00:01:00;;;;;;;16.80;10.40;;;9.10;99.90;;;;;;5052261;28;20206;-62
2020/12/16 00:03:27;;;;;;;14.97;9.70;;;9.00;99.90;;;;;;5052481;28;20661;-63
2020/12/16 00:05:53;;;;;;;16.40;10.83;;;9.10;99.90;;;;;;5051939;28;20243;-62
2020/12/16 00:08:20;;;;;;;15.67;9.87;;;9.10;99.90;;;;;;5052977;28;20560;-63
2020/12/16 00:10:46;;;;;;;15.03;9.60;;;9.10;99.90;;;;;;5052792;28;20260;-63
2020/12/16 00:13:13;;;;;;;16.53;10.17;;;9.10;99.90;;;;;;5052808;28;20682;-61
2020/12/16 00:15:40;;;;;;;16.63;10.63;;;9.10;99.90;;;;;;5051333;28;20589;-60
2020/12/16 00:18:06;;;;;;;17.07;10.27;;;9.10;99.90;;;;;;5052723;28;20209;-62
2020/12/16 00:20:33;;;;;;;16.43;10.70;;;9.10;99.90;;;;;;5051423;28;20202;-65
2020/12/16 00:22:59;;;;;;;14.87;9.93;;;9.10;99.90;;;;;;5052479;28;20202;-61
2020/12/16 00:25:26;;;;;;;15.20;9.43;;;9.10;99.90;;;;;;5051749;28;20314;-63
2020/12/16 00:27:53;;;;;;;14.37;9.87;;;9.00;99.90;;;;;;5050438;28;20688;-62
2020/12/16 00:30:19;;;;;;;15.07;9.13;;;9.00;99.90;;;;;;5051572;28;20203;-63
2020/12/16 00:32:46;;;;;;;14.73;9.57;;;9.00;99.90;;;;;;5052476;28;20231;-63
2020/12/16 00:35:12;;;;;;;15.53;9.83;;;9.00;99.90;;;;;;5051305;28;20614;-62
2020/12/16 00:37:40;;;;;;;15.20;9.73;;;9.00;99.90;;;;;;5051584;28;20215;-62
2020/12/16 00:40:09;;;;;;;15.20;10.23;;;9.00;99.90;;;;;;5051612;28;20685;-62
2020/12/16 00:42:36;;;;;;;17.93;11.70;;;9.00;99.90;;;;;;5052042;28;20209;-65
2020/12/16 00:45:04;;;;;;;16.33;10.27;;;9.00;99.90;;;;;;5051305;28;20719;-63
2020/12/16 00:47:33;;;;;;;16.13;10.53;;;9.00;99.90;;;;;;5050813;28;20222;-64
2020/12/16 00:49:59;;;;;;;17.70;10.47;;;9.00;99.90;;;;;;5044440;28;20222;-62
2020/12/16 00:52:26;;;;;;;16.87;11.40;;;9.00;99.90;;;;;;5051674;28;20225;-62
2020/12/16 00:54:53;;;;;;;18.00;11.03;;;9.10;99.90;;;;;;5050990;28;20199;-63
2020/12/16 00:57:19;;;;;;;17.50;11.13;;;9.00;99.90;;;;;;5050706;28;20707;-63
2020/12/16 00:59:46;;;;;;;18.70;11.23;;;9.00;99.90;;;;;;5051581;28;20670;-63
2020/12/16 01:02:13;;;;;;;19.97;12.27;;;9.10;99.90;;;;;;5051438;28;20211;-64
2020/12/16 01:04:39;;;;;;;18.27;11.43;;;9.10;99.90;;;;;;5046045;28;20206;-61
2020/12/16 01:07:05;;;;;;;18.60;11.40;;;9.10;99.90;;;;;;5051321;28;20759;-61
2020/12/16 01:09:32;;;;;;;19.23;11.27;;;9.10;99.90;;;;;;5049923;28;20195;-64
2020/12/16 01:11:58;;;;;;;19.50;12.53;;;9.00;99.90;;;;;;5051129;28;20298;-62
2020/12/16 01:14:24;;;;;;;19.97;11.43;;;9.00;99.90;;;;;;5051525;28;20203;-63
2020/12/16 01:16:51;;;;;;;20.20;12.30;;;9.00;99.90;;;;;;5050851;28;20219;-62
2020/12/16 01:19:17;;;;;;;21.17;13.13;;;9.00;99.90;;;;;;5051172;28;20210;-64
2020/12/16 01:21:44;;;;;;;20.60;12.67;;;9.10;99.90;;;;;;5051066;28;20211;-63
2020/12/16 01:24:10;;;;;;;22.93;13.57;;;9.10;99.90;;;;;;5050323;28;20281;-63
2020/12/16 01:26:40;;;;;;;21.63;12.90;;;9.10;99.90;;;;;;5051079;28;20606;-63
2020/12/16 01:29:06;;;;;;;21.30;13.30;;;9.00;99.90;;;;;;5050948;28;20206;-64
2020/12/16 01:31:39;;;;;;;23.20;13.93;;;9.00;99.90;;;;;;5044879;28;20206;-61
2020/12/16 01:34:06;;;;;;;22.07;13.83;;;9.00;99.90;;;;;;5050683;28;20195;-61
2020/12/16 01:36:33;;;;;;;21.23;13.03;;;9.00;99.90;;;;;;5048655;28;20238;-63
2020/12/16 01:38:59;;;;;;;20.03;12.47;;;8.90;99.90;;;;;;5050479;28;20202;-62
2020/12/16 01:41:25;;;;;;;22.37;13.73;;;8.90;99.90;;;;;;5050661;28;20199;-61
2020/12/16 01:43:52;;;;;;;21.57;12.40;;;8.90;99.90;;;;;;5050538;28;20293;-62
2020/12/16 01:46:18;;;;;;;20.60;12.47;;;8.90;99.90;;;;;;5050835;28;20300;-61
2020/12/16 01:48:44;;;;;;;20.97;12.80;;;8.90;99.90;;;;;;5050965;28;20679;-62
2020/12/16 01:51:17;;;;;;;17.70;11.07;;;8.90;99.90;;;;;;5051039;28;20195;-63
2020/12/16 01:53:45;;;;;;;22.37;13.37;;;8.90;99.90;;;;;;5051006;28;20203;-62
2020/12/16 01:56:12;;;;;;;24.43;15.23;;;8.80;99.90;;;;;;5050966;28;20215;-63
2020/12/16 01:58:41;;;;;;;22.33;13.73;;;8.90;99.90;;;;;;5051336;28;20199;-63
2020/12/16 02:01:09;;;;;;;23.87;14.37;;;8.80;99.90;;;;;;5050773;28;20211;-63
2020/12/16 02:03:38;;;;;;;26.47;15.03;;;8.90;99.90;;;;;;5050028;28;20207;-63
2020/12/16 02:06:07;;;;;;;22.50;13.50;;;8.90;99.90;;;;;;5044010;28;20229;-64
2020/12/16 02:08:38;;;;;;;23.17;14.40;;;8.90;99.90;;;;;;5047764;28;20203;-61
2020/12/16 02:11:05;;;;;;;22.03;13.53;;;8.90;99.90;;;;;;5038166;28;20226;-62
2020/12/16 02:13:31;;;;;;;25.00;15.10;;;8.90;99.90;;;;;;5035248;28;20203;-65
2020/12/16 02:15:57;;;;;;;22.97;14.17;;;8.90;99.90;;;;;;5036067;28;20714;-64
2020/12/16 02:18:23;;;;;;;24.03;14.37;;;8.90;99.90;;;;;;5037029;28;20229;-63
2020/12/16 02:20:50;;;;;;;28.53;16.37;;;8.90;99.90;;;;;;5041319;28;20203;-62
2020/12/16 02:23:19;;;;;;;25.03;14.63;;;8.90;99.90;;;;;;5043042;28;20274;-60
2020/12/16 02:25:46;;;;;;;25.67;15.53;;;9.00;99.90;;;;;;5041015;28;20216;-62
2020/12/16 02:28:13;;;;;;;25.63;15.73;;;9.00;99.90;;;;;;5038532;28;20207;-62
2020/12/16 02:30:40;;;;;;;24.37;14.73;;;8.90;99.90;;;;;;5037579;28;20214;-64
2020/12/16 02:33:06;;;;;;;27.47;14.27;;;8.90;99.90;;;;;;5046298;28;20289;-61
2020/12/16 02:35:32;;;;;;;25.57;15.90;;;8.90;99.90;;;;;;5044042;28;20780;-61
2020/12/16 02:37:58;;;;;;;25.57;15.13;;;8.90;99.90;;;;;;5046875;28;20226;-62
2020/12/16 02:40:25;;;;;;;23.57;14.40;;;8.90;99.90;;;;;;5045327;28;20681;-60
2020/12/16 02:42:52;;;;;;;24.90;15.00;;;8.90;99.90;;;;;;5044957;28;20203;-62
2020/12/16 02:45:19;;;;;;;26.57;16.07;;;9.00;99.90;;;;;;5046910;28;20769;-61
2020/12/16 02:47:45;;;;;;;25.03;15.67;;;9.00;99.90;;;;;;5054062;28;20202;-62
2020/12/16 02:50:11;;;;;;;26.80;14.80;;;9.00;99.90;;;;;;5053495;28;20207;-61
2020/12/16 02:52:37;;;;;;;25.27;15.53;;;9.00;99.90;;;;;;5054435;28;20203;-62
2020/12/16 02:55:04;;;;;;;24.53;15.20;;;9.00;99.90;;;;;;5053514;28;20222;-65
2020/12/16 02:57:30;;;;;;;27.03;15.70;;;9.00;99.90;;;;;;5048634;28;20736;-63
2020/12/16 02:59:59;;;;;;;26.50;15.93;;;8.90;99.90;;;;;;5049668;28;20207;-61
2020/12/16 03:02:25;;;;;;;26.10;15.97;;;8.90;99.90;;;;;;5051896;28;20203;-58
2020/12/16 03:04:51;;;;;;;25.33;15.30;;;8.90;99.90;;;;;;5041626;28;20624;-61
2020/12/16 03:07:18;;;;;;;26.87;14.83;;;8.90;99.90;;;;;;5041555;28;20195;-63
2020/12/16 03:09:44;;;;;;;26.47;15.13;;;8.90;99.90;;;;;;5038659;28;20590;-66
2020/12/16 03:12:11;;;;;;;27.70;16.20;;;8.90;99.90;;;;;;5045868;28;20670;-62
2020/12/16 03:14:37;;;;;;;26.17;16.47;;;9.00;99.90;;;;;;5043871;28;20222;-64
2020/12/16 03:17:04;;;;;;;26.00;16.10;;;8.90;99.90;;;;;;5048350;28;20227;-61
2020/12/16 03:19:31;;;;;;;24.47;15.13;;;8.90;99.90;;;;;;5048165;28;20195;-60
2020/12/16 03:21:57;;;;;;;24.03;14.87;;;8.80;99.90;;;;;;5051745;28;20199;-64
2020/12/16 03:24:23;;;;;;;26.20;15.03;;;8.70;99.90;;;;;;5048775;28;20203;-62
2020/12/16 03:26:49;;;;;;;24.10;14.03;;;8.70;99.90;;;;;;5050879;28;20611;-61
2020/12/16 03:29:16;;;;;;;24.07;14.30;;;8.60;99.90;;;;;;5051024;28;20211;-60
2020/12/16 03:31:42;;;;;;;23.70;14.93;;;8.60;99.90;;;;;;5049775;28;20214;-65
2020/12/16 03:34:10;;;;;;;24.50;14.00;;;8.60;99.90;;;;;;5050576;28;20711;-64
2020/12/16 03:36:36;;;;;;;24.27;13.50;;;8.60;99.90;;;;;;5050787;28;20227;-62
2020/12/16 03:39:03;;;;;;;25.23;14.10;;;8.50;99.90;;;;;;5051125;28;20199;-65
2020/12/16 03:41:30;;;;;;;24.97;15.10;;;8.60;99.90;;;;;;5049863;28;20207;-63
2020/12/16 03:43:56;;;;;;;23.57;14.10;;;8.60;99.90;;;;;;5047484;28;20211;-62
2020/12/16 03:46:22;;;;;;;28.60;15.50;;;8.60;99.90;;;;;;5050736;28;20598;-62
2020/12/16 03:48:49;;;;;;;29.37;16.30;;;8.70;99.90;;;;;;5052005;28;20207;-63
2020/12/16 03:51:16;;;;;;;27.07;16.73;;;8.90;99.90;;;;;;5051464;28;20684;-64
2020/12/16 03:53:43;;;;;;;25.03;15.73;;;8.80;99.90;;;;;;5051262;28;20209;-62
2020/12/16 03:56:11;;;;;;;26.97;16.73;;;8.80;99.90;;;;;;5052809;28;20223;-64
2020/12/16 03:58:40;;;;;;;23.83;14.47;;;8.70;99.90;;;;;;5052797;28;20219;-64
2020/12/16 04:01:06;;;;;;;24.37;14.30;;;8.60;99.90;;;;;;5052595;28;20206;-63
2020/12/16 04:03:33;;;;;;;28.43;20.53;;;8.50;99.90;;;;;;5051195;28;20199;-62
2020/12/16 04:06:00;;;;;;;25.23;16.27;;;8.50;99.90;;;;;;5290515;22;20611;-54
2020/12/16 04:08:27;;;;;;;24.20;14.77;;;8.30;99.90;;;;;;5052231;28;20195;-56
2020/12/16 04:10:54;;;;;;;24.43;15.37;;;8.30;99.90;;;;;;5053012;28;20566;-54
2020/12/16 04:13:20;;;;;;;24.43;14.50;;;8.20;99.90;;;;;;5053053;28;20255;-57
2020/12/16 04:15:46;;;;;;;24.63;14.17;;;8.10;99.90;;;;;;5053266;28;20229;-55
2020/12/16 04:18:12;;;;;;;24.80;15.17;;;8.10;99.90;;;;;;5050354;28;20690;-59
2020/12/16 04:20:39;;;;;;;25.73;14.97;;;7.90;99.90;;;;;;5049191;28;20222;-58
2020/12/16 04:23:06;;;;;;;22.83;13.83;;;8.10;99.90;;;;;;5053213;28;20209;-58
2020/12/16 04:25:33;;;;;;;27.83;18.73;;;8.10;99.90;;;;;;5052360;28;20221;-59
2020/12/16 04:28:00;;;;;;;20.60;12.17;;;8.10;99.90;;;;;;5051998;28;20669;-57
2020/12/16 04:30:27;;;;;;;23.03;14.50;;;7.90;99.90;;;;;;5052606;28;20199;-58
2020/12/16 04:32:56;;;;;;;21.63;13.40;;;7.70;99.90;;;;;;5053092;28;20234;-57
2020/12/16 04:35:23;;;;;;;22.23;13.17;;;7.40;99.90;;;;;;5052363;28;20222;-58
2020/12/16 04:37:50;;;;;;;19.10;11.13;;;7.20;99.90;;;;;;5052897;28;20238;-57
2020/12/16 04:40:16;;;;;;;18.83;11.30;;;6.70;99.90;;;;;;5052201;28;20206;-58
2020/12/16 04:42:44;;;;;;;20.93;11.57;;;6.80;99.90;;;;;;5052546;28;20199;-59
2020/12/16 04:45:10;;;;;;;19.60;11.23;;;6.90;99.90;;;;;;5052510;28;20646;-57
2020/12/16 04:47:37;;;;;;;20.57;11.13;;;7.00;99.90;;;;;;5052816;28;20195;-58
2020/12/16 04:50:05;;;;;;;18.83;11.27;;;6.90;99.90;;;;;;5052242;28;20205;-56
2020/12/16 04:52:32;;;;;;;18.43;10.50;;;6.80;99.90;;;;;;5046218;28;20280;-59
2020/12/16 04:54:59;;;;;;;17.63;10.90;;;6.70;99.90;;;;;;5043481;28;21935;-59
2020/12/16 04:57:25;;;;;;;19.87;11.67;;;6.70;99.90;;;;;;5051395;28;20249;-58
2020/12/16 04:59:55;;;;;;;21.03;11.73;;;6.60;99.90;;;;;;5052171;28;20211;-59
2020/12/16 05:02:22;;;;;;;19.33;11.30;;;6.60;99.90;;;;;;5051757;28;20199;-57
2020/12/16 05:04:48;;;;;;;20.53;11.97;;;6.70;99.90;;;;;;5051324;28;20269;-59
2020/12/16 05:07:28;;;;;;;19.87;11.77;;;6.80;99.90;;;;;;5051421;28;20199;-58
2020/12/16 05:09:54;;;;;;;19.83;11.47;;;6.70;99.90;;;;;;5051660;28;20213;-60
2020/12/16 05:12:20;;;;;;;106.37;12.40;;;6.40;99.90;;;;;;5052114;28;20567;-58
2020/12/16 05:14:47;;;;;;;160.67;14.93;;;6.00;99.90;;;;;;5051549;28;20223;-59
2020/12/16 05:17:14;;;;;;;96.40;11.40;;;5.60;99.90;;;;;;5051562;28;20222;-56
2020/12/16 05:19:41;;;;;;;39.43;7.90;;;5.80;99.90;;;;;;5052565;28;20207;-59
2020/12/16 05:22:16;;;;;;;65.43;9.37;;;5.80;99.90;;;;;;5052155;28;20205;-53
2020/12/16 05:24:44;;;;;;;77.63;8.43;;;5.90;99.90;;;;;;5052047;28;20258;-53
2020/12/16 05:27:16;;;;;;;68.80;8.60;;;5.80;99.90;;;;;;5051906;28;20662;-58
2020/12/16 05:29:42;;;;;;;67.30;7.97;;;5.60;99.90;;;;;;5052436;28;20210;-58
2020/12/16 05:32:21;;;;;;;29.20;8.27;;;5.60;99.90;;;;;;5044719;28;20203;-58
2020/12/16 05:34:47;;;;;;;38.07;7.40;;;5.60;99.90;;;;;;5037109;28;20696;-58
2020/12/16 05:37:28;;;;;;;33.07;7.63;;;5.50;99.90;;;;;;5051385;28;20223;-59
2020/12/16 05:40:00;;;;;;;27.43;6.57;;;5.50;99.90;;;;;;5051520;28;20207;-59
2020/12/16 05:42:26;;;;;;;45.23;6.70;;;5.40;99.90;;;;;;5051111;28;20617;-60
2020/12/16 05:44:54;;;;;;;40.50;6.47;;;4.80;99.90;;;;;;5051518;28;20227;-57
2020/12/16 05:47:21;;;;;;;91.90;10.20;;;4.70;99.90;;;;;;5051314;28;20199;-57
2020/12/16 05:49:48;;;;;;;62.77;9.53;;;5.00;99.90;;;;;;5051188;28;20654;-57
2020/12/16 05:52:14;;;;;;;37.50;7.27;;;5.10;99.90;;;;;;5051072;28;20668;-60
2020/12/16 05:54:40;;;;;;;28.03;6.80;;;5.00;99.90;;;;;;5050372;28;20226;-59
2020/12/16 05:57:16;;;;;;;44.37;7.30;;;5.00;99.90;;;;;;5051963;28;20219;-58
2020/12/16 06:00:00;;;;;;;11.60;6.23;;;5.00;99.90;;;;;;5050841;28;20823;-56
2020/12/16 06:02:34;;;;;;;7.57;5.40;;;5.00;99.90;;;;;;5051472;28;20650;-59
2020/12/16 06:05:00;;;;;;;10.77;5.50;;;5.10;99.90;;;;;;5050843;28;20222;-57
2020/12/16 06:07:28;;;;;;;13.93;7.30;;;5.00;99.90;;;;;;5051525;28;20199;-57
2020/12/16 06:09:56;;;;;;;14.17;6.70;;;4.70;99.90;;;;;;5050799;28;20203;-54
2020/12/16 06:12:27;;;;;;;26.83;12.00;;;4.60;99.90;;;;;;5051455;28;20210;-58
2020/12/16 06:15:11;;;;;;;27.77;12.87;;;4.60;99.90;;;;;;5045706;28;20223;-58
2020/12/16 06:17:41;;;;;;;16.60;8.07;;;4.50;99.90;;;;;;5047486;28;20313;-54
2020/12/16 06:20:14;;;;;;;31.70;16.00;;;4.50;99.90;;;;;;5051012;28;20214;-57
2020/12/16 06:22:43;;;;;;;39.00;20.13;;;4.60;99.90;;;;;;5051298;28;20251;-56
2020/12/16 06:25:11;;;;;;;39.40;21.37;;;4.70;99.90;;;;;;5050370;28;20225;-57
2020/12/16 06:27:48;;;;;;;39.53;24.53;;;4.90;99.90;;;;;;5051405;28;20256;-56
2020/12/16 06:30:17;;;;;;;49.37;27.37;;;5.10;99.90;;;;;;5050986;28;20209;-53
2020/12/16 06:32:48;;;;;;;38.70;21.97;;;5.10;99.90;;;;;;5051273;28;20205;-55
2020/12/16 06:35:19;;;;;;;39.97;25.47;;;5.20;99.90;;;;;;5050592;28;20222;-54
2020/12/16 06:37:47;;;;;;;41.60;25.47;;;5.40;99.90;;;;;;5050702;28;20219;-56
2020/12/16 06:40:43;;;;;;;36.53;22.03;;;5.40;99.90;;;;;;5050930;28;20206;-59
2020/12/16 06:43:37;;;;;;;35.33;21.53;;;5.70;99.90;;;;;;5047384;28;20203;-57
2020/12/16 06:46:05;;;;;;;43.03;30.13;;;5.80;99.90;;;;;;5048928;28;20233;-59
2020/12/16 06:48:36;;;;;;;50.23;37.90;;;5.90;99.90;;;;;;5044208;28;20570;-57
2020/12/16 06:51:15;;;;;;;44.10;31.17;;;5.80;99.90;;;;;;5048471;28;20203;-56
2020/12/16 06:53:42;;;;;;;21.27;11.90;;;5.80;99.90;;;;;;5050434;28;20203;-53
2020/12/16 06:56:09;;;;;;;19.80;9.97;;;5.00;99.90;;;;;;5050654;28;20689;-58
2020/12/16 06:58:39;;;;;;;19.67;11.63;;;4.50;99.90;;;;;;5050226;28;20223;-53
2020/12/16 07:01:11;;;;;;;21.53;10.27;;;4.30;99.90;;;;;;5050732;28;20257;-58
2020/12/16 07:03:38;;;;;;;24.07;10.03;;;4.20;99.90;;;;;;5050302;28;20203;-55
2020/12/16 07:06:08;;;;;;;20.27;9.83;;;3.90;99.90;;;;;;5051365;28;20241;-53
2020/12/16 07:08:35;;;;;;;19.00;9.80;;;3.90;99.90;;;;;;5054415;28;20199;-59
2020/12/16 07:11:01;;;;;;;18.37;10.20;;;4.00;99.90;;;;;;5054207;28;20203;-55
2020/12/16 07:13:33;;;;;;;20.73;8.80;;;4.00;99.90;;;;;;5053864;28;20202;-57
2020/12/16 07:16:07;;;;;;;19.23;8.87;;;4.00;99.90;;;;;;5054526;28;20227;-58
2020/12/16 07:18:46;;;;;;;16.70;8.50;;;4.10;99.90;;;;;;5053911;28;20221;-58
2020/12/16 07:21:28;;;;;;;14.40;8.17;;;4.10;99.90;;;;;;5054214;28;20233;-58
2020/12/16 07:24:06;;;;;;;13.60;8.33;;;4.20;99.90;;;;;;5051998;28;20256;-55
2020/12/16 07:26:34;;;;;;;13.13;8.30;;;4.30;99.90;;;;;;5054247;28;20198;-56
2020/12/16 07:29:18;;;;;;;13.33;8.50;;;4.40;99.90;;;;;;5053840;28;20207;-55
2020/12/16 07:31:54;;;;;;;12.93;7.80;;;4.40;99.90;;;;;;5053859;28;20207;-59
2020/12/16 07:34:21;;;;;;;14.97;8.27;;;4.40;99.90;;;;;;5053047;28;20194;-57
2020/12/16 07:36:53;;;;;;;13.10;8.20;;;4.40;99.90;;;;;;5053804;28;20241;-57
2020/12/16 07:39:19;;;;;;;12.20;7.93;;;4.40;99.90;;;;;;5053778;28;20203;-56
2020/12/16 07:41:46;;;;;;;15.97;8.80;;;4.50;99.90;;;;;;5052883;28;20207;-55
2020/12/16 07:44:13;;;;;;;16.90;7.70;;;4.40;99.90;;;;;;5053020;28;20202;-58
2020/12/16 07:46:39;;;;;;;31.23;7.50;;;4.30;99.90;;;;;;5053597;28;20805;-55
2020/12/16 07:49:09;;;;;;;13.87;7.50;;;3.90;99.90;;;;;;5053873;28;20207;-55
2020/12/16 07:51:36;;;;;;;52.90;8.50;;;3.90;99.90;;;;;;5053113;28;20199;-56
2020/12/16 07:54:03;;;;;;;80.50;9.77;;;4.00;99.90;;;;;;5053160;28;20206;-54
2020/12/16 07:56:29;;;;;;;23.73;9.57;;;4.10;99.90;;;;;;5052389;28;20215;-57
2020/12/16 07:58:55;;;;;;;68.67;12.83;;;4.40;99.90;;;;;;5052794;28;20210;-58
2020/12/16 08:01:22;;;;;;;23.50;8.97;;;4.50;99.90;;;;;;5052852;28;20195;-60
2020/12/16 08:03:49;;;;;;;31.07;9.63;;;4.60;99.90;;;;;;5053085;28;20195;-56
2020/12/16 08:06:15;;;;;;;18.27;8.30;;;4.50;99.90;;;;;;5052946;28;20241;-59
2020/12/16 08:08:44;;;;;;;17.43;10.00;;;4.50;99.90;;;;;;5053151;28;20206;-58
2020/12/16 08:11:12;;;;;;;46.13;11.43;;;4.60;99.90;;;;;;5053013;28;20209;-60
2020/12/16 08:13:39;;;;;;;21.30;10.87;;;4.60;99.90;;;;;;5053389;28;20252;-58
2020/12/16 08:16:07;;;;;;;21.70;10.50;;;4.80;99.90;;;;;;5053188;28;20233;-60
2020/12/16 08:18:33;;;;;;;17.77;9.90;;;4.80;99.90;;;;;;5052283;28;20705;-58
2020/12/16 08:21:00;;;;;;;15.97;10.03;;;5.00;99.90;;;;;;5053002;28;20287;-57
2020/12/16 08:23:26;;;;;;;17.00;10.63;;;5.10;99.90;;;;;;5052802;28;20203;-59
2020/12/16 08:25:53;;;;;;;16.57;9.77;;;5.10;99.90;;;;;;5051054;28;20285;-56
2020/12/16 08:28:27;;;;;;;12.63;8.67;;;5.30;99.90;;;;;;5052772;28;20195;-58
2020/12/16 08:30:54;;;;;;;16.53;9.20;;;5.30;99.90;;;;;;5052784;28;20202;-56
2020/12/16 08:33:20;;;;;;;14.60;9.27;;;5.30;99.90;;;;;;5052530;28;20199;-54
2020/12/16 08:35:51;;;;;;;14.07;8.93;;;5.30;99.90;;;;;;5052732;28;20310;-55
2020/12/16 08:38:25;;;;;;;13.77;9.37;;;5.50;99.90;;;;;;5052226;28;20223;-55
2020/12/16 08:40:55;;;;;;;17.47;10.63;;;5.50;99.90;;;;;;5052925;28;20206;-55
2020/12/16 08:43:24;;;;;;;15.87;10.33;;;5.50;99.90;;;;;;5046623;28;20259;-54
2020/12/16 08:45:59;;;;;;;15.10;10.17;;;5.40;99.90;;;;;;5049204;28;20226;-57
2020/12/16 08:48:25;;;;;;;14.97;10.80;;;5.40;99.90;;;;;;5047147;28;20194;-54
2020/12/16 08:51:04;;;;;;;13.20;9.43;;;5.50;99.90;;;;;;5052203;28;20658;-56
2020/12/16 08:53:46;;;;;;;14.43;10.07;;;5.60;99.90;;;;;;5052417;28;20199;-55
2020/12/16 08:56:27;;;;;;;14.07;10.03;;;5.60;99.90;;;;;;5051936;28;20269;-53
2020/12/16 08:59:19;;;;;;;15.70;9.57;;;5.80;99.90;;;;;;5052545;28;20206;-57
2020/12/16 09:01:47;;;;;;;16.50;10.83;;;5.80;99.90;;;;;;5032624;28;21282;-59
2020/12/16 09:04:24;;;;;;;18.47;11.40;;;6.10;99.90;;;;;;5052152;28;20605;-55
2020/12/16 09:07:01;;;;;;;18.03;11.83;;;6.20;99.90;;;;;;5051982;28;20285;-54
2020/12/16 09:09:27;;;;;;;17.27;11.33;;;6.20;99.90;;;;;;5051772;28;20253;-59
2020/12/16 09:11:55;;;;;;;14.57;10.13;;;6.30;99.90;;;;;;5052082;28;20215;-55
2020/12/16 09:14:22;;;;;;;16.90;10.27;;;6.40;99.90;;;;;;5052057;28;20590;-59
2020/12/16 09:16:48;;;;;;;19.10;11.27;;;6.40;99.90;;;;;;5052155;28;20223;-56
2020/12/16 09:19:19;;;;;;;20.43;13.73;;;6.50;99.90;;;;;;5051807;28;20673;-54
2020/12/16 09:21:47;;;;;;;23.30;14.57;;;6.70;99.90;;;;;;5052172;28;20203;-55
2020/12/16 09:24:13;;;;;;;23.03;13.50;;;6.80;99.90;;;;;;5051329;28;20207;-53
2020/12/16 09:26:43;;;;;;;18.33;11.30;;;6.80;99.90;;;;;;5052211;28;20209;-57
2020/12/16 09:29:19;;;;;;;17.30;11.33;;;6.90;99.90;;;;;;5051189;28;20735;-55
2020/12/16 09:31:45;;;;;;;17.97;10.87;;;6.90;99.90;;;;;;5048209;28;20626;-59
2020/12/16 09:34:12;;;;;;;15.80;10.07;;;6.80;99.90;;;;;;5051306;28;20205;-55
2020/12/16 09:36:38;;;;;;;18.03;11.00;;;6.90;99.90;;;;;;5051595;28;20206;-59
2020/12/16 09:39:06;;;;;;;18.47;11.53;;;7.00;99.90;;;;;;5051766;28;20203;-57
2020/12/16 09:41:44;;;;;;;18.80;12.03;;;7.10;99.90;;;;;;5052037;28;20214;-57
2020/12/16 09:44:25;;;;;;;21.50;13.20;;;7.30;99.90;;;;;;5047788;28;20738;-59
2020/12/16 09:46:52;;;;;;;23.17;14.37;;;7.40;99.90;;;;;;5051721;28;20206;-57
2020/12/16 09:49:19;;;;;;;29.00;14.20;;;7.60;99.90;;;;;;5051028;28;20233;-57
2020/12/16 09:51:45;;;;;;;22.50;14.07;;;7.80;99.90;;;;;;5051808;28;20203;-56
2020/12/16 09:54:27;;;;;;;22.83;15.30;;;7.90;99.90;;;;;;5050994;28;20206;-58
2020/12/16 09:56:53;;;;;;;25.87;15.63;;;8.10;99.90;;;;;;5051229;28;20227;-57
2020/12/16 09:59:19;;;;;;;29.87;18.67;;;8.40;99.90;;;;;;5051327;28;20207;-60
2020/12/16 10:01:49;;;;;;;31.57;20.07;;;8.70;99.90;;;;;;5051025;28;20210;-56
2020/12/16 10:04:16;;;;;;;30.70;19.90;;;8.90;99.90;;;;;;5051302;28;20206;-54
2020/12/16 10:06:42;;;;;;;30.67;19.23;;;9.00;99.90;;;;;;5050504;28;20279;-58
2020/12/16 10:09:08;;;;;;;32.57;20.90;;;9.30;99.90;;;;;;5048566;28;20202;-58
2020/12/16 10:11:37;;;;;;;30.93;19.63;;;9.60;99.90;;;;;;5050777;28;20254;-54
2020/12/16 10:14:03;;;;;;;27.53;19.23;;;9.80;99.90;;;;;;5049488;28;20229;-56
2020/12/16 10:16:31;;;;;;;26.90;17.23;;;9.90;99.90;;;;;;5044813;28;20222;-54
2020/12/16 10:19:00;;;;;;;28.43;17.70;;;10.20;99.90;;;;;;5046618;28;20208;-55
2020/12/16 10:21:26;;;;;;;27.93;18.13;;;11.10;99.90;;;;;;5042719;28;20284;-56
2020/12/16 10:23:52;;;;;;;23.73;15.50;;;11.00;99.90;;;;;;5042960;28;20851;-57
2020/12/16 10:26:19;;;;;;;23.47;15.80;;;10.70;99.90;;;;;;5043483;28;20221;-56
2020/12/16 10:28:45;;;;;;;23.63;14.43;;;10.60;99.90;;;;;;5046399;28;20206;-58
2020/12/16 10:31:11;;;;;;;21.73;14.13;;;10.60;99.90;;;;;;5047892;28;20217;-55
2020/12/16 10:33:38;;;;;;;21.47;15.90;;;10.50;99.90;;;;;;5048907;28;20203;-51
2020/12/16 10:36:05;;;;;;;19.53;14.00;;;10.60;99.90;;;;;;5050450;28;20253;-57
2020/12/16 10:38:31;;;;;;;18.63;11.10;;;10.70;99.90;;;;;;5043656;28;20226;-56
2020/12/16 10:40:57;;;;;;;18.50;12.10;;;10.60;99.90;;;;;;5043944;28;20203;-58
2020/12/16 10:43:24;;;;;;;18.83;12.07;;;10.70;99.90;;;;;;5051214;28;20281;-54
2020/12/16 10:45:50;;;;;;;19.40;12.07;;;10.80;99.90;;;;;;5054134;28;20245;-55
2020/12/16 10:48:16;;;;;;;19.33;11.70;;;10.70;99.90;;;;;;5054664;28;20205;-55
2020/12/16 10:50:43;;;;;;;21.90;13.87;;;10.70;99.90;;;;;;5054694;28;20210;-60
2020/12/16 10:53:10;;;;;;;20.90;12.63;;;10.80;99.90;;;;;;5058592;28;20825;-57
2020/12/16 10:55:36;;;;;;;18.07;11.67;;;10.90;99.90;;;;;;5054421;28;20223;-60
2020/12/16 10:58:04;;;;;;;18.60;12.47;;;11.00;99.90;;;;;;5053375;28;20701;-60
2020/12/16 11:00:30;;;;;;;17.23;10.20;;;11.10;99.90;;;;;;5053873;28;20670;-60
2020/12/16 11:02:57;;;;;;;17.47;10.50;;;11.10;99.90;;;;;;5052972;28;20228;-55
2020/12/16 11:05:23;;;;;;;16.67;10.70;;;11.20;99.90;;;;;;5049943;28;20251;-58
2020/12/16 11:07:49;;;;;;;21.93;15.03;;;11.30;99.90;;;;;;5054369;28;20199;-59
2020/12/16 11:10:16;;;;;;;20.67;14.30;;;11.20;99.90;;;;;;5051657;28;20203;-57
2020/12/16 11:12:42;;;;;;;17.87;12.17;;;11.30;99.90;;;;;;5051392;28;20199;-60
2020/12/16 11:15:09;;;;;;;21.80;14.57;;;11.30;99.90;;;;;;5046411;28;20215;-51
2020/12/16 11:17:36;;;;;;;21.20;14.63;;;11.20;99.90;;;;;;5052649;28;20657;-55
2020/12/16 11:20:02;;;;;;;19.00;13.07;;;11.20;99.90;;;;;;5054158;28;20205;-58
2020/12/16 11:22:28;;;;;;;18.83;11.33;;;11.20;99.90;;;;;;5053659;28;20728;-55
2020/12/16 11:24:56;;;;;;;16.10;10.40;;;11.10;99.90;;;;;;5053594;28;20226;-60
2020/12/16 11:27:22;;;;;;;17.00;10.53;;;11.10;99.90;;;;;;5053234;28;20191;-60
2020/12/16 11:29:49;;;;;;;18.67;11.47;;;11.00;99.90;;;;;;5052779;28;20203;-58
2020/12/16 11:32:16;;;;;;;16.37;10.03;;;11.10;99.90;;;;;;5052914;28;20249;-59
2020/12/16 11:34:43;;;;;;;18.97;10.77;;;11.10;99.90;;;;;;5049422;28;20231;-57
2020/12/16 11:37:09;;;;;;;19.60;13.50;;;11.10;99.90;;;;;;5053324;28;20219;-54
2020/12/16 11:39:36;;;;;;;20.33;15.13;;;11.20;99.90;;;;;;5053708;28;20646;-57
2020/12/16 11:42:03;;;;;;;16.07;10.13;;;11.20;99.90;;;;;;5053599;28;20195;-57
2020/12/16 11:44:30;;;;;;;16.30;10.37;;;11.30;99.90;;;;;;5053194;28;20732;-55
2020/12/16 11:46:58;;;;;;;17.07;10.53;;;11.30;99.90;;;;;;5052383;28;20605;-57
2020/12/16 11:49:26;;;;;;;17.83;10.90;;;11.20;99.90;;;;;;5053373;28;20203;-57
2020/12/16 11:51:53;;;;;;;16.57;10.80;;;11.20;99.90;;;;;;5053612;28;20205;-56
2020/12/16 11:54:20;;;;;;;15.03;9.90;;;11.20;99.90;;;;;;5052220;28;20199;-57
2020/12/16 11:56:46;;;;;;;25.87;10.47;;;11.10;99.90;;;;;;5052997;28;20207;-54
2020/12/16 11:59:13;;;;;;;15.67;10.33;;;11.20;99.90;;;;;;5053646;28;20271;-56
2020/12/16 12:01:41;;;;;;;16.77;10.97;;;11.40;99.90;;;;;;5052788;28;20209;-56
2020/12/16 12:04:07;;;;;;;19.23;13.07;;;11.40;99.90;;;;;;5052562;28;20199;-59
2020/12/16 12:06:34;;;;;;;18.30;11.83;;;11.40;99.90;;;;;;5053044;28;20218;-55
2020/12/16 12:09:00;;;;;;;20.93;14.23;;;11.30;99.90;;;;;;5052715;28;20203;-59
2020/12/16 12:11:27;;;;;;;24.60;19.33;;;11.30;99.90;;;;;;5053034;28;20221;-59
2020/12/16 12:13:53;;;;;;;21.23;15.27;;;11.40;99.90;;;;;;5052768;28;20299;-57
2020/12/16 12:16:19;;;;;;;18.67;12.03;;;11.50;99.90;;;;;;5050871;28;20230;-57
2020/12/16 12:18:46;;;;;;;19.20;11.23;;;11.50;99.90;;;;;;5052840;28;20219;-59
2020/12/16 12:21:16;;;;;;;16.57;10.57;;;11.50;99.90;;;;;;5052490;28;20578;-56
2020/12/16 12:23:44;;;;;;;15.83;10.23;;;11.50;99.90;;;;;;5053041;28;20199;-56
2020/12/16 12:26:10;;;;;;;16.33;9.43;;;11.50;99.90;;;;;;5052641;28;20229;-60
2020/12/16 12:28:37;;;;;;;15.57;9.90;;;11.60;99.90;;;;;;5052608;28;20201;-57
2020/12/16 12:31:03;;;;;;;15.67;9.90;;;11.60;99.90;;;;;;5052682;28;20213;-56
2020/12/16 12:33:30;;;;;;;14.80;8.70;;;11.50;99.90;;;;;;5052698;28;20203;-58
2020/12/16 12:35:56;;;;;;;17.37;11.23;;;11.50;99.90;;;;;;5051619;28;20222;-60
2020/12/16 12:38:22;;;;;;;18.50;11.37;;;11.60;99.90;;;;;;5052696;28;20219;-58
2020/12/16 12:40:49;;;;;;;15.60;10.20;;;11.80;99.90;;;;;;5051607;28;20198;-56
2020/12/16 12:43:16;;;;;;;15.13;9.70;;;11.80;99.90;;;;;;5049256;28;20195;-58